Time;durP1;ratioP1;P1;durP2;ratioP2;P2;SDS_P1;SDS_P2;PMS_P1;PMS_P2;Temp;Humidity;BMP_temperature;BMP_pressure;BME280_temperature;BME280_humidity;BME280_pressure;Samples;Min_cycle;Max_cycle;Signal;HPM_P1;HPM_P2
2022/07/11 00:01:33;;;;;;;;;;;16.80;99.90;;;;;;5069180;28;20352;-65
2022/07/11 00:03:58;;;;;;;;;;;16.70;99.90;;;;;;5050426;28;19958;-65
2022/07/11 00:06:24;;;;;;;;;;;16.70;99.90;;;;;;5069341;28;19916;-65
2022/07/11 00:08:49;;;;;;;;;;;16.70;99.90;;;;;;5050300;28;19920;-65
2022/07/11 00:11:15;;;;;;;;;;;16.70;99.90;;;;;;5047558;28;20272;-65
2022/07/11 00:13:40;;;;;;;;;;;16.70;99.90;;;;;;5069071;28;20062;-65
2022/07/11 00:16:06;;;;;;;;;;;16.70;99.90;;;;;;5068726;28;19998;-65
2022/07/11 00:18:32;;;;;;;;;;;16.70;99.90;;;;;;5051025;28;19909;-65
2022/07/11 00:20:57;;;;;;;;;;;16.70;99.90;;;;;;5068844;28;19971;-65
2022/07/11 00:23:23;;;;;;;;;;;16.60;99.90;;;;;;5068839;28;19912;-65
2022/07/11 00:25:49;;;;;;;;;;;16.60;99.90;;;;;;5068317;28;20284;-65
2022/07/11 00:28:14;;;;;;;;;;;16.60;99.90;;;;;;5050734;28;19924;-65
2022/07/11 00:30:40;;;;;;;;;;;16.60;99.90;;;;;;5051128;28;19908;-66
2022/07/11 00:33:05;;;;;;;;;;;16.50;99.90;;;;;;5050483;28;19913;-65
2022/07/11 00:35:31;;;;;;;;;;;16.50;99.90;;;;;;5068994;28;19916;-65
2022/07/11 00:37:57;;;;;;;;;;;16.50;99.90;;;;;;5067833;28;19908;-65
2022/07/11 00:40:22;;;;;;;;;;;16.40;99.90;;;;;;5048278;28;20350;-65
2022/07/11 00:42:48;;;;;;;;;;;16.30;99.90;;;;;;5068187;28;19912;-65
2022/07/11 00:45:13;;;;;;;;;;;16.30;99.90;;;;;;5050693;28;20438;-65
2022/07/11 00:47:39;;;;;;;;;;;16.20;99.90;;;;;;5069110;28;19920;-65
2022/07/11 00:50:05;;;;;;;;;;;16.10;99.90;;;;;;5068235;28;19920;-65
2022/07/11 00:52:30;;;;;;;;;;;16.00;99.90;;;;;;5068481;28;19913;-65
2022/07/11 00:54:56;;;;;;;;;;;15.90;99.90;;;;;;5049987;28;19908;-64
2022/07/11 00:57:22;;;;;;;;;;;15.90;99.90;;;;;;5050795;28;19916;-65
2022/07/11 00:59:48;;;;;;;;;;;15.90;99.90;;;;;;5049788;28;19926;-65
2022/07/11 01:02:13;;;;;;;;;;;15.90;99.90;;;;;;5068410;28;20007;-65
2022/07/11 01:04:39;;;;;;;;;;;15.80;99.90;;;;;;5068219;28;19912;-65
2022/07/11 01:07:05;;;;;;;;;;;15.80;99.90;;;;;;5067982;28;19912;-65
2022/07/11 01:09:31;;;;;;;;;;;15.80;99.90;;;;;;5049908;28;20249;-65
2022/07/11 01:11:57;;;;;;;;;;;15.80;99.90;;;;;;5066003;28;19912;-65
2022/07/11 01:14:23;;;;;;;;;;;15.70;99.90;;;;;;5050591;28;19916;-65
2022/07/11 01:16:51;;;;;;;;;;;15.70;99.90;;;;;;5050077;28;19998;-65
2022/07/11 01:19:16;;;;;;;;;;;15.70;99.90;;;;;;5069623;28;19908;-65
2022/07/11 01:21:42;;;;;;;;;;;15.70;99.90;;;;;;5072343;28;19919;-65
2022/07/11 01:24:09;;;;;;;;;;;15.80;99.90;;;;;;5071264;28;19916;-65
2022/07/11 01:26:35;;;;;;;;;;;15.70;99.90;;;;;;5072032;28;19919;-65
2022/07/11 01:29:06;;;;;;;;;;;15.80;99.90;;;;;;5053780;28;19944;-65
2022/07/11 01:31:32;;;;;;;;;;;15.70;99.90;;;;;;5054040;28;19908;-65
2022/07/11 01:33:58;;;;;;;;;;;15.70;99.90;;;;;;5071346;28;19970;-65
2022/07/11 01:36:23;;;;;;;;;;;15.60;99.90;;;;;;5071953;28;19916;-65
2022/07/11 01:38:49;;;;;;;;;;;15.50;99.90;;;;;;5071155;28;19908;-65
2022/07/11 01:41:15;;;;;;;;;;;15.40;99.90;;;;;;5069971;28;20358;-65
2022/07/11 01:43:40;;;;;;;;;;;15.60;99.90;;;;;;5071682;28;19916;-65
2022/07/11 01:46:06;;;;;;;;;;;15.60;99.90;;;;;;5053650;28;19913;-65
2022/07/11 01:48:31;;;;;;;;;;;15.60;99.90;;;;;;5053606;28;19953;-65
2022/07/11 01:50:57;;;;;;;;;;;15.40;99.90;;;;;;5071549;28;20004;-65
2022/07/11 01:53:22;;;;;;;;;;;15.50;99.90;;;;;;5071466;28;20384;-65
2022/07/11 01:55:48;;;;;;;;;;;15.60;99.90;;;;;;5071531;28;19912;-65
2022/07/11 01:58:14;;;;;;;;;;;15.70;99.90;;;;;;5071314;28;20383;-65
2022/07/11 02:00:39;;;;;;;;;;;15.70;99.90;;;;;;5054050;28;20217;-65
2022/07/11 02:03:05;;;;;;;;;;;15.80;99.90;;;;;;5070870;28;19924;-65
2022/07/11 02:05:31;;;;;;;;;;;15.90;99.90;;;;;;5067696;28;19912;-65
2022/07/11 02:08:11;;;;;;;;;;;15.80;99.90;;;;;;5070993;28;20376;-65
2022/07/11 02:10:38;;;;;;;;;;;15.80;99.90;;;;;;5069431;28;19917;-65
2022/07/11 02:13:03;;;;;;;;;;;15.80;99.90;;;;;;5052960;28;19959;-65
2022/07/11 02:15:29;;;;;;;;;;;15.90;99.90;;;;;;5067393;28;19948;-65
2022/07/11 02:17:55;;;;;;;;;;;15.90;99.90;;;;;;5070872;28;19948;-65
2022/07/11 02:20:22;;;;;;;;;;;15.80;99.90;;;;;;5071226;28;19912;-65
2022/07/11 02:22:51;;;;;;;;;;;15.80;99.90;;;;;;5071356;28;19962;-65
2022/07/11 02:25:17;;;;;;;;;;;15.90;99.90;;;;;;5070901;28;19908;-65
2022/07/11 02:27:42;;;;;;;;;;;15.90;99.90;;;;;;5053093;28;20372;-65
2022/07/11 02:30:08;;;;;;;;;;;15.90;99.90;;;;;;5070388;28;19934;-65
2022/07/11 02:32:34;;;;;;;;;;;16.00;99.90;;;;;;5067305;28;19909;-65
2022/07/11 02:35:00;;;;;;;;;;;15.90;99.90;;;;;;5052220;28;19915;-65
2022/07/11 02:37:25;;;;;;;;;;;15.90;99.90;;;;;;5070817;28;20457;-65
2022/07/11 02:39:51;;;;;;;;;;;15.90;99.90;;;;;;5070586;28;19909;-65
2022/07/11 02:42:18;;;;;;;;;;;15.90;99.90;;;;;;5050662;28;19970;-65
2022/07/11 02:44:44;;;;;;;;;;;15.90;99.90;;;;;;5070513;28;19947;-65
2022/07/11 02:47:09;;;;;;;;;;;15.90;99.90;;;;;;5070002;28;19920;-65
2022/07/11 02:49:35;;;;;;;;;;;15.80;99.90;;;;;;5070844;28;20410;-65
2022/07/11 02:52:00;;;;;;;;;;;15.90;99.90;;;;;;5052019;28;19913;-65
2022/07/11 02:54:26;;;;;;;;;;;15.90;99.90;;;;;;5052616;28;19979;-65
2022/07/11 02:56:51;;;;;;;;;;;15.90;99.90;;;;;;5070163;28;19919;-65
2022/07/11 02:59:17;;;;;;;;;;;15.90;99.90;;;;;;5069720;28;19920;-65
2022/07/11 03:01:42;;;;;;;;;;;15.90;99.90;;;;;;5070241;28;19944;-65
2022/07/11 03:04:08;;;;;;;;;;;15.80;99.90;;;;;;5069474;28;19966;-65
2022/07/11 03:06:34;;;;;;;;;;;15.80;99.90;;;;;;5070243;28;19908;-65
2022/07/11 03:08:59;;;;;;;;;;;15.80;99.90;;;;;;5069420;28;19919;-65
2022/07/11 03:11:25;;;;;;;;;;;15.80;99.90;;;;;;5068534;28;19917;-65
2022/07/11 03:13:50;;;;;;;;;;;15.80;99.90;;;;;;5052306;28;19917;-65
2022/07/11 03:16:16;;;;;;;;;;;15.80;99.90;;;;;;5067580;28;19908;-65
2022/07/11 03:18:41;;;;;;;;;;;15.80;99.90;;;;;;5068860;28;19996;-65
2022/07/11 03:21:07;;;;;;;;;;;15.80;99.90;;;;;;5069019;28;19915;-65
2022/07/11 03:23:34;;;;;;;;;;;15.90;99.90;;;;;;5069387;28;19913;-65
2022/07/11 03:26:00;;;;;;;;;;;15.90;99.90;;;;;;5050771;28;20291;-65
2022/07/11 03:28:25;;;;;;;;;;;15.90;99.90;;;;;;5051300;28;19912;-65
2022/07/11 03:30:51;;;;;;;;;;;15.90;99.90;;;;;;5051659;28;19936;-65
2022/07/11 03:33:16;;;;;;;;;;;15.80;99.90;;;;;;5068459;28;19909;-65
2022/07/11 03:35:42;;;;;;;;;;;15.90;99.90;;;;;;5069426;28;20011;-65
2022/07/11 03:38:08;;;;;;;;;;;15.90;99.90;;;;;;5050836;28;19915;-65
2022/07/11 03:40:34;;;;;;;;;;;15.80;99.90;;;;;;5049244;28;20279;-65
2022/07/11 03:42:59;;;;;;;;;;;15.90;99.90;;;;;;5068109;28;19995;-65
2022/07/11 03:45:25;;;;;;;;;;;16.00;99.90;;;;;;5069521;28;20338;-65
2022/07/11 03:47:50;;;;;;;;;;;15.90;99.90;;;;;;5069037;28;19912;-65
2022/07/11 03:50:16;;;;;;;;;;;16.00;99.90;;;;;;5068094;28;19958;-65
2022/07/11 03:52:42;;;;;;;;;;;16.00;99.90;;;;;;5068843;28;20399;-65
2022/07/11 03:55:07;;;;;;;;;;;16.00;99.90;;;;;;5050103;28;19944;-65
2022/07/11 03:57:39;;;;;;;;;;;16.00;99.90;;;;;;5065464;28;19952;-65
2022/07/11 04:00:06;;;;;;;;;;;16.00;99.90;;;;;;5067082;28;19994;-65
2022/07/11 04:02:31;;;;;;;;;;;16.00;99.90;;;;;;5068106;28;19935;-65
2022/07/11 04:04:57;;;;;;;;;;;16.10;99.90;;;;;;5068661;28;19908;-62
2022/07/11 04:07:22;;;;;;;;;;;16.10;99.90;;;;;;5048858;28;19982;-62
2022/07/11 04:09:48;;;;;;;;;;;16.10;99.90;;;;;;5066230;28;19920;-62
2022/07/11 04:12:13;;;;;;;;;;;16.10;99.90;;;;;;5064017;28;19989;-62
2022/07/11 04:14:39;;;;;;;;;;;16.10;99.90;;;;;;5067752;28;19917;-62
2022/07/11 04:17:05;;;;;;;;;;;16.10;99.90;;;;;;5067407;28;19970;-62
2022/07/11 04:19:30;;;;;;;;;;;16.10;99.90;;;;;;5048443;28;19909;-63
2022/07/11 04:21:56;;;;;;;;;;;16.10;99.90;;;;;;5069926;28;19967;-65
2022/07/11 04:24:22;;;;;;;;;;;16.10;99.90;;;;;;5068056;28;20000;-65
2022/07/11 04:26:47;;;;;;;;;;;16.10;99.90;;;;;;5068244;28;20053;-65
2022/07/11 04:29:13;;;;;;;;;;;16.10;99.90;;;;;;5068808;28;20355;-65
2022/07/11 04:31:38;;;;;;;;;;;16.10;99.90;;;;;;5070111;28;19923;-65
2022/07/11 04:34:04;;;;;;;;;;;16.10;99.90;;;;;;5068555;28;19908;-65
2022/07/11 04:36:29;;;;;;;;;;;16.10;99.90;;;;;;5048845;28;20437;-65
2022/07/11 04:38:55;;;;;;;;;;;16.10;99.90;;;;;;5064370;28;19920;-65
2022/07/11 04:41:20;;;;;;;;;;;16.00;99.90;;;;;;5070337;28;20520;-65
2022/07/11 04:43:46;;;;;;;;;;;16.00;99.90;;;;;;5068661;28;19969;-65
2022/07/11 04:46:11;;;;;;;;;;;16.10;99.90;;;;;;5068319;28;19915;-65
2022/07/11 04:48:38;;;;;;;;;;;16.10;99.90;;;;;;5068975;28;19989;-65
2022/07/11 04:51:04;;;;;;;;;;;16.10;99.90;;;;;;5068691;28;19915;-65
2022/07/11 04:53:30;;;;;;;;;;;16.10;99.90;;;;;;5069831;28;19947;-62
2022/07/11 04:55:55;;;;;;;;;;;16.20;99.90;;;;;;5072563;28;20329;-62
2022/07/11 04:58:20;;;;;;;;;;;16.20;99.90;;;;;;5071377;28;19912;-62
2022/07/11 05:00:46;;;;;;;;;;;16.20;99.90;;;;;;5053062;28;19943;-62
2022/07/11 05:03:12;;;;;;;;;;;16.30;99.90;;;;;;5071842;28;20410;-63
2022/07/11 05:05:37;;;;;;;;;;;16.30;99.90;;;;;;5073251;28;19958;-64
2022/07/11 05:08:03;;;;;;;;;;;16.40;99.90;;;;;;5074150;28;19909;-64
2022/07/11 05:10:31;;;;;;;;;;;16.50;99.90;;;;;;5071251;28;19912;-65
2022/07/11 05:12:56;;;;;;;;;;;16.50;99.90;;;;;;5073317;28;19949;-64
2022/07/11 05:15:22;;;;;;;;;;;16.50;99.90;;;;;;5071754;28;19916;-64
2022/07/11 05:17:48;;;;;;;;;;;16.50;99.90;;;;;;5055349;28;20314;-64
2022/07/11 05:20:13;;;;;;;;;;;16.50;99.90;;;;;;5072457;28;19934;-65
2022/07/11 05:22:39;;;;;;;;;;;16.40;99.90;;;;;;5072211;28;20217;-65
2022/07/11 05:25:04;;;;;;;;;;;16.50;99.90;;;;;;5071085;28;20221;-65
2022/07/11 05:27:30;;;;;;;;;;;16.60;99.90;;;;;;5066801;28;19913;-65
2022/07/11 05:29:56;;;;;;;;;;;16.70;99.90;;;;;;5069359;28;19915;-65
2022/07/11 05:32:21;;;;;;;;;;;16.60;99.90;;;;;;5077775;28;19913;-64
2022/07/11 05:34:47;;;;;;;;;;;16.70;99.90;;;;;;5072873;28;19919;-64
2022/07/11 05:37:12;;;;;;;;;;;16.60;99.90;;;;;;5071253;28;19943;-64
2022/07/11 05:39:38;;;;;;;;;;;16.50;99.90;;;;;;5072043;28;20387;-64
2022/07/11 05:42:03;;;;;;;;;;;16.40;99.90;;;;;;5049746;28;20411;-64
2022/07/11 05:44:29;;;;;;;;;;;16.40;99.90;;;;;;5052395;28;20003;-64
2022/07/11 05:47:01;;;;;;;;;;;16.40;99.90;;;;;;5071405;28;19912;-64
2022/07/11 05:49:26;;;;;;;;;;;16.40;99.90;;;;;;5052898;28;20014;-64
2022/07/11 05:51:52;;;;;;;;;;;16.40;99.90;;;;;;5071559;28;19944;-64
2022/07/11 05:54:18;;;;;;;;;;;16.40;99.90;;;;;;5070810;28;19909;-64
2022/07/11 05:56:44;;;;;;;;;;;16.40;99.90;;;;;;5069305;28;19912;-64
2022/07/11 05:59:09;;;;;;;;;;;16.40;99.90;;;;;;5044730;28;20011;-64
2022/07/11 06:01:35;;;;;;;;;;;16.40;99.90;;;;;;5066803;28;20531;-64
2022/07/11 06:04:01;;;;;;;;;;;16.30;99.90;;;;;;5068220;28;20331;-64
2022/07/11 06:06:26;;;;;;;;;;;16.30;99.90;;;;;;5067249;28;19908;-64
2022/07/11 06:08:53;;;;;;;;;;;16.30;99.90;;;;;;5060325;28;19923;-65
2022/07/11 06:11:19;;;;;;;;;;;16.20;99.90;;;;;;5047518;28;20393;-64
2022/07/11 06:13:45;;;;;;;;;;;16.20;99.90;;;;;;5067261;28;19928;-64
2022/07/11 06:16:11;;;;;;;;;;;16.30;99.90;;;;;;5046922;28;19951;-64
2022/07/11 06:18:37;;;;;;;;;;;16.40;99.90;;;;;;5064960;28;20418;-64
2022/07/11 06:21:03;;;;;;;;;;;16.40;99.90;;;;;;5065535;28;19918;-65
2022/07/11 06:23:28;;;;;;;;;;;16.50;99.90;;;;;;5069993;28;20371;-64
2022/07/11 06:25:54;;;;;;;;;;;16.70;99.90;;;;;;5052455;28;20003;-64
2022/07/11 06:28:20;;;;;;;;;;;16.80;99.90;;;;;;5051472;28;19912;-64
2022/07/11 06:30:45;;;;;;;;;;;16.80;99.90;;;;;;5070681;28;19970;-64
2022/07/11 06:33:11;;;;;;;;;;;16.90;99.90;;;;;;5069976;28;19916;-64
2022/07/11 06:35:36;;;;;;;;;;;17.00;99.90;;;;;;5071231;28;19913;-64
2022/07/11 06:38:02;;;;;;;;;;;17.00;99.90;;;;;;5070802;28;19908;-64
2022/07/11 06:40:28;;;;;;;;;;;17.00;99.90;;;;;;5051590;28;19922;-64
2022/07/11 06:42:54;;;;;;;;;;;17.10;99.90;;;;;;5052555;28;19935;-64
2022/07/11 06:45:19;;;;;;;;;;;17.20;99.90;;;;;;5070294;28;20391;-64
2022/07/11 06:47:45;;;;;;;;;;;17.20;99.90;;;;;;5071197;28;19913;-64
2022/07/11 06:50:11;;;;;;;;;;;17.00;99.90;;;;;;5070482;28;19908;-63
2022/07/11 06:52:36;;;;;;;;;;;17.10;99.90;;;;;;5070705;28;19950;-63
2022/07/11 06:55:02;;;;;;;;;;;17.00;99.90;;;;;;5070393;28;19909;-64
2022/07/11 06:57:28;;;;;;;;;;;17.00;99.90;;;;;;5069887;28;19980;-64
2022/07/11 06:59:53;;;;;;;;;;;17.10;99.90;;;;;;5070321;28;19920;-64
2022/07/11 07:02:19;;;;;;;;;;;17.10;99.90;;;;;;5069523;28;19944;-64
2022/07/11 07:04:45;;;;;;;;;;;17.10;99.90;;;;;;5070117;28;20360;-64
2022/07/11 07:07:10;;;;;;;;;;;17.10;99.90;;;;;;5069433;28;19955;-64
2022/07/11 07:09:36;;;;;;;;;;;16.90;99.90;;;;;;5066480;28;19909;-64
2022/07/11 07:12:02;;;;;;;;;;;16.90;99.90;;;;;;5049672;28;19912;-64
2022/07/11 07:14:27;;;;;;;;;;;17.00;99.90;;;;;;5064578;28;20340;-64
2022/07/11 07:16:53;;;;;;;;;;;17.20;99.90;;;;;;5064742;28;19935;-64
2022/07/11 07:19:18;;;;;;;;;;;17.50;99.90;;;;;;5068642;28;19940;-63
2022/07/11 07:21:44;;;;;;;;;;;17.50;99.90;;;;;;5069171;28;19908;-64
2022/07/11 07:24:09;;;;;;;;;;;17.50;99.90;;;;;;5050402;28;20363;-64
2022/07/11 07:26:35;;;;;;;;;;;17.60;99.90;;;;;;5068475;28;19920;-63
2022/07/11 07:29:00;;;;;;;;;;;17.50;99.90;;;;;;5071391;28;19908;-64
2022/07/11 07:31:26;;;;;;;;;;;17.50;99.90;;;;;;5067901;28;19912;-64
2022/07/11 07:33:51;;;;;;;;;;;17.40;99.90;;;;;;5068453;28;19930;-64
2022/07/11 07:36:17;;;;;;;;;;;17.70;99.90;;;;;;5064388;28;20368;-64
2022/07/11 07:38:46;;;;;;;;;;;17.80;99.90;;;;;;5069712;28;20003;-64
2022/07/11 07:41:15;;;;;;;;;;;17.60;99.90;;;;;;5048038;28;19958;-64
2022/07/11 07:43:41;;;;;;;;;;;17.50;99.90;;;;;;5068149;28;19994;-64
2022/07/11 07:46:09;;;;;;;;;;;17.60;99.90;;;;;;5066408;28;20351;-64
2022/07/11 07:48:35;;;;;;;;;;;17.70;99.90;;;;;;5064136;28;19947;-64
2022/07/11 07:51:00;;;;;;;;;;;17.50;99.90;;;;;;5062245;28;19916;-64
2022/07/11 07:53:26;;;;;;;;;;;17.50;99.90;;;;;;5065763;28;20104;-63
2022/07/11 07:55:52;;;;;;;;;;;17.70;99.90;;;;;;5067874;28;19996;-64
2022/07/11 07:58:17;;;;;;;;;;;17.90;99.90;;;;;;5067152;28;19920;-63
2022/07/11 08:03:27;;;;;;;;;;;17.80;99.90;;;;;;5063655;28;19924;-63
2022/07/11 08:05:55;;;;;;;;;;;17.80;99.90;;;;;;5067350;28;20224;-63
2022/07/11 08:08:20;;;;;;;;;;;18.00;99.90;;;;;;5067139;28;20293;-63
2022/07/11 08:10:46;;;;;;;;;;;18.10;99.90;;;;;;5065130;28;20284;-63
2022/07/11 08:13:11;;;;;;;;;;;18.20;99.90;;;;;;5067031;28;20078;-63
2022/07/11 08:15:37;;;;;;;;;;;18.10;99.90;;;;;;5049395;28;20371;-63
2022/07/11 08:18:02;;;;;;;;;;;18.20;99.90;;;;;;5063710;28;19908;-63
2022/07/11 08:20:28;;;;;;;;;;;18.10;99.90;;;;;;5067340;28;19954;-64
2022/07/11 08:22:58;;;;;;;;;;;17.90;99.90;;;;;;5067186;28;19960;-63
2022/07/11 08:25:24;;;;;;;;;;;17.80;99.90;;;;;;5067017;28;19935;-63
2022/07/11 08:27:49;;;;;;;;;;;18.00;99.90;;;;;;5066901;28;20469;-63
2022/07/11 08:30:15;;;;;;;;;;;18.00;99.90;;;;;;5067002;28;19947;-63
2022/07/11 08:32:40;;;;;;;;;;;18.10;99.90;;;;;;5067222;28;20734;-63
2022/07/11 08:35:06;;;;;;;;;;;18.20;99.90;;;;;;5067596;28;19908;-63
2022/07/11 08:37:32;;;;;;;;;;;18.30;99.90;;;;;;5066644;28;20338;-63
2022/07/11 08:39:57;;;;;;;;;;;18.40;99.90;;;;;;5049157;28;19943;-63
2022/07/11 08:42:26;;;;;;;;;;;18.50;99.90;;;;;;5065134;28;20346;-63
2022/07/11 08:44:52;;;;;;;;;;;18.50;99.90;;;;;;5067089;28;19928;-63
2022/07/11 08:47:18;;;;;;;;;;;18.30;99.90;;;;;;5066769;28;19936;-64
2022/07/11 08:49:45;;;;;;;;;;;18.70;99.90;;;;;;5067563;28;20031;-63
2022/07/11 08:52:11;;;;;;;;;;;18.80;99.90;;;;;;5066102;28;20011;-63
2022/07/11 08:54:36;;;;;;;;;;;18.90;99.90;;;;;;5067661;28;20257;-63
2022/07/11 08:57:03;;;;;;;;;;;19.10;99.90;;;;;;5067447;28;20030;-63
2022/07/11 08:59:31;;;;;;;;;;;18.90;99.90;;;;;;5066738;28;19921;-64
2022/07/11 09:01:58;;;;;;;;;;;18.50;99.90;;;;;;5067820;28;19912;-65
2022/07/11 09:04:24;;;;;;;;;;;18.50;99.90;;;;;;5062463;28;20401;-65
2022/07/11 09:06:50;;;;;;;;;;;18.60;99.90;;;;;;5046633;28;19988;-63
2022/07/11 09:09:15;;;;;;;;;;;18.50;99.90;;;;;;5055729;28;19970;-63
2022/07/11 09:11:52;;;;;;;;;;;18.40;99.90;;;;;;5065792;28;19909;-63
2022/07/11 09:14:24;;;;;;;;;;;18.30;99.90;;;;;;5067133;28;19916;-63
2022/07/11 09:16:54;;;;;;;;;;;18.20;99.90;;;;;;5064564;28;20176;-63
2022/07/11 09:19:20;;;;;;;;;;;18.40;99.90;;;;;;5045636;28;19919;-63
2022/07/11 09:27:46;;;;;;;;;;;18.70;99.90;;;;;;5064722;28;20445;-63
2022/07/11 09:30:16;;;;;;;;;;;18.70;99.90;;;;;;5066929;28;20291;-63
2022/07/11 09:32:42;;;;;;;;;;;18.90;99.90;;;;;;5066062;28;19915;-62
2022/07/11 09:35:10;;;;;;;;;;;18.80;99.90;;;;;;5065602;28;20360;-63
2022/07/11 09:37:43;;;;;;;;;;;19.00;99.90;;;;;;5067290;28;19935;-63
2022/07/11 09:40:12;;;;;;;;;;;19.30;99.90;;;;;;5069487;28;20497;-63
2022/07/11 09:42:54;;;;;;;;;;;19.70;99.90;;;;;;5071138;28;20382;-63
2022/07/11 09:45:20;;;;;;;;;;;19.90;99.90;;;;;;5067373;28;20307;-63
2022/07/11 09:47:47;;;;;;;;;;;20.30;99.90;;;;;;5070332;28;20332;-63
2022/07/11 09:50:13;;;;;;;;;;;20.40;99.90;;;;;;5070529;28;19908;-63
2022/07/11 09:52:38;;;;;;;;;;;20.50;99.90;;;;;;5071733;28;20343;-63
2022/07/11 09:55:05;;;;;;;;;;;20.30;99.90;;;;;;5071431;28;19920;-64
2022/07/11 09:57:34;;;;;;;;;;;20.30;99.90;;;;;;5070215;28;19981;-65
2022/07/11 10:00:00;;;;;;;;;;;20.30;99.90;;;;;;5050975;28;19936;-63
2022/07/11 10:02:26;;;;;;;;;;;20.10;99.90;;;;;;5070367;28;19912;-65
2022/07/11 10:04:52;;;;;;;;;;;20.10;99.90;;;;;;5071006;28;19917;-64
2022/07/11 10:07:18;;;;;;;;;;;20.20;99.90;;;;;;5070448;28;19908;-63
2022/07/11 10:09:43;;;;;;;;;;;20.00;99.90;;;;;;5071402;28;20367;-64
2022/07/11 10:12:09;;;;;;;;;;;19.80;99.90;;;;;;5069220;28;19917;-63
2022/07/11 10:14:36;;;;;;;;;;;19.40;99.90;;;;;;5070291;28;19968;-63
2022/07/11 10:17:21;;;;;;;;;;;19.20;99.90;;;;;;5052448;28;19908;-63
2022/07/11 10:19:50;;;;;;;;;;;19.20;99.90;;;;;;5069229;28;20348;-64
2022/07/11 10:22:22;;;;;;;;;;;19.10;99.90;;;;;;5067941;28;19935;-63
2022/07/11 10:24:48;;;;;;;;;;;19.30;99.90;;;;;;5070165;28;19966;-63
2022/07/11 10:27:21;;;;;;;;;;;19.20;99.90;;;;;;5069963;28;20351;-63
2022/07/11 10:29:51;;;;;;;;;;;19.10;99.90;;;;;;5070426;28;19908;-63
2022/07/11 10:32:17;;;;;;;;;;;18.80;99.90;;;;;;5070032;28;20212;-64
2022/07/11 10:34:42;;;;;;;;;;;18.80;99.90;;;;;;5051983;28;19931;-63
2022/07/11 10:37:08;;;;;;;;;;;19.10;99.90;;;;;;5070070;28;19915;-63
2022/07/11 10:39:35;;;;;;;;;;;19.20;99.90;;;;;;5051118;28;20098;-63
2022/07/11 10:42:02;;;;;;;;;;;19.30;99.90;;;;;;5068309;28;19917;-63
2022/07/11 10:44:46;;;;;;;;;;;19.40;99.90;;;;;;5069381;28;19917;-63
2022/07/11 10:47:30;;;;;;;;;;;19.40;99.90;;;;;;5067662;28;19916;-65
2022/07/11 10:49:57;;;;;;;;;;;19.50;99.90;;;;;;5066581;28;19922;-63
2022/07/11 10:52:23;;;;;;;;;;;19.60;99.90;;;;;;5068031;28;20225;-63
2022/07/11 10:54:55;;;;;;;;;;;19.70;99.90;;;;;;5070072;28;20417;-63
2022/07/11 10:57:40;;;;;;;;;;;19.80;99.90;;;;;;5069321;28;20021;-63
2022/07/11 11:00:09;;;;;;;;;;;19.60;99.90;;;;;;5067431;28;19943;-64
2022/07/11 11:02:53;;;;;;;;;;;19.40;99.90;;;;;;5069036;28;19912;-63
2022/07/11 11:05:37;;;;;;;;;;;19.60;99.90;;;;;;5066834;28;19935;-63
2022/07/11 11:08:23;;;;;;;;;;;19.40;99.90;;;;;;5066895;28;19943;-63
2022/07/11 11:10:48;;;;;;;;;;;19.60;99.90;;;;;;5062044;28;19908;-63
2022/07/11 11:13:14;;;;;;;;;;;19.50;99.90;;;;;;5069590;28;20278;-63
2022/07/11 11:15:44;;;;;;;;;;;19.30;99.90;;;;;;5069204;28;19935;-63
2022/07/11 11:18:21;;;;;;;;;;;19.50;99.90;;;;;;5051511;28;19969;-63
2022/07/11 11:20:47;;;;;;;;;;;19.50;99.90;;;;;;5061668;28;19908;-63
2022/07/11 11:23:19;;;;;;;;;;;19.50;99.90;;;;;;5069222;28;19924;-63
2022/07/11 11:25:49;;;;;;;;;;;19.40;99.90;;;;;;5065433;28;19916;-63
2022/07/11 11:28:19;;;;;;;;;;;19.20;99.90;;;;;;5069042;28;19919;-63
2022/07/11 11:30:52;;;;;;;;;;;19.10;99.90;;;;;;5065543;28;19916;-63
2022/07/11 11:33:18;;;;;;;;;;;19.10;99.90;;;;;;5068850;28;19908;-63
2022/07/11 11:35:43;;;;;;;;;;;18.90;99.90;;;;;;5050938;28;19912;-63
2022/07/11 11:38:09;;;;;;;;;;;18.80;99.90;;;;;;5068728;28;19908;-63
2022/07/11 11:40:34;;;;;;;;;;;18.80;99.90;;;;;;5066857;28;19958;-63
2022/07/11 11:43:00;;;;;;;;;;;18.80;99.90;;;;;;5050577;28;19982;-63
2022/07/11 11:45:25;;;;;;;;;;;18.80;99.90;;;;;;5068250;28;19913;-63
2022/07/11 11:47:51;;;;;;;;;;;18.80;99.90;;;;;;5049494;28;19915;-63
2022/07/11 11:50:17;;;;;;;;;;;19.20;99.90;;;;;;5068712;28;19916;-63
2022/07/11 11:52:42;;;;;;;;;;;19.50;99.90;;;;;;5068987;28;20309;-63
2022/07/11 11:55:11;;;;;;;;;;;19.90;99.90;;;;;;5068338;28;19914;-63
2022/07/11 11:57:37;;;;;;;;;;;20.10;99.90;;;;;;5068235;28;19908;-63
2022/07/11 12:00:03;;;;;;;;;;;20.20;99.90;;;;;;5050411;28;20297;-63
2022/07/11 12:02:30;;;;;;;;;;;20.40;99.90;;;;;;5067355;28;20043;-64
2022/07/11 12:04:59;;;;;;;;;;;20.90;99.90;;;;;;5068354;28;19921;-63
2022/07/11 12:07:26;;;;;;;;;;;21.50;99.90;;;;;;5067797;28;19909;-63
2022/07/11 12:09:55;;;;;;;;;;;22.40;99.90;;;;;;5068692;28;20113;-64
2022/07/11 12:15:08;;;;;;;;;;;23.60;99.90;;;;;;5066388;28;19935;-63
2022/07/11 12:17:35;;;;;;;;;;;23.50;99.90;;;;;;5068111;28;19916;-64
2022/07/11 12:20:01;;;;;;;;;;;24.50;99.90;;;;;;5068586;28;19908;-64
2022/07/11 12:22:27;;;;;;;;;;;25.80;99.90;;;;;;5068230;28;19935;-64
2022/07/11 12:24:53;;;;;;;;;;;26.10;99.90;;;;;;5068676;28;20003;-64
2022/07/11 12:27:19;;;;;;;;;;;25.60;99.90;;;;;;5068095;28;19958;-63
2022/07/11 12:29:49;;;;;;;;;;;24.70;99.90;;;;;;5068305;28;19908;-63
2022/07/11 12:32:15;;;;;;;;;;;24.60;99.90;;;;;;5049639;28;19909;-64
2022/07/11 12:34:41;;;;;;;;;;;23.90;99.90;;;;;;5067623;28;20453;-64
2022/07/11 12:37:12;;;;;;;;;;;23.40;99.90;;;;;;5068123;28;20399;-65
2022/07/11 12:39:39;;;;;;;;;;;23.50;99.90;;;;;;5049138;28;20340;-64
2022/07/11 12:42:24;;;;;;;;;;;22.90;99.90;;;;;;5067106;28;19908;-63
2022/07/11 12:44:59;;;;;;;;;;;22.60;99.90;;;;;;5065258;28;20502;-64
2022/07/11 12:47:26;;;;;;;;;;;22.70;99.90;;;;;;5045846;28;19923;-63
2022/07/11 12:49:52;;;;;;;;;;;22.40;99.90;;;;;;5068268;28;19947;-63
2022/07/11 12:52:17;;;;;;;;;;;22.80;99.90;;;;;;5068327;28;19975;-65
2022/07/11 12:54:43;;;;;;;;;;;23.40;99.90;;;;;;5067274;28;19908;-64
2022/07/11 12:57:10;;;;;;;;;;;24.20;99.90;;;;;;5049876;28;19908;-65
2022/07/11 12:59:38;;;;;;;;;;;26.10;99.90;;;;;;5067018;28;19925;-64
2022/07/11 13:02:06;;;;;;;;;;;27.90;97.30;;;;;;5067688;28;19995;-64
2022/07/11 13:04:35;;;;;;;;;;;28.90;95.00;;;;;;5067556;28;19998;-64
2022/07/11 13:10:06;;;;;;;;;;;27.80;94.60;;;;;;5060081;28;19963;-64
2022/07/11 13:12:31;;;;;;;;;;;26.50;96.10;;;;;;5063625;28;19912;-63
2022/07/11 13:15:10;;;;;;;;;;;25.70;97.40;;;;;;5066635;28;20003;-63
2022/07/11 13:17:37;;;;;;;;;;;24.50;99.90;;;;;;5049827;28;19912;-63
2022/07/11 13:20:04;;;;;;;;;;;23.80;99.90;;;;;;5071912;28;19908;-64
2022/07/11 13:22:30;;;;;;;;;;;23.50;99.90;;;;;;5070926;28;19928;-63
2022/07/11 13:24:56;;;;;;;;;;;23.20;99.90;;;;;;5071540;28;19917;-63
2022/07/11 13:27:21;;;;;;;;;;;23.40;99.90;;;;;;5071802;28;19919;-64
2022/07/11 13:29:48;;;;;;;;;;;23.70;99.90;;;;;;5053192;28;19912;-63
2022/07/11 13:32:13;;;;;;;;;;;23.50;99.90;;;;;;5049577;28;19915;-63
2022/07/11 13:34:39;;;;;;;;;;;23.50;99.90;;;;;;5050835;28;19909;-64
2022/07/11 13:37:04;;;;;;;;;;;23.20;99.90;;;;;;5071038;28;20422;-63
2022/07/11 13:39:30;;;;;;;;;;;23.00;99.90;;;;;;5069127;28;20011;-63
2022/07/11 13:41:55;;;;;;;;;;;22.90;99.90;;;;;;5069466;28;20340;-63
2022/07/11 13:44:21;;;;;;;;;;;22.60;99.90;;;;;;5071329;28;19921;-63
2022/07/11 13:46:46;;;;;;;;;;;22.20;99.90;;;;;;5070475;28;20253;-63
2022/07/11 13:49:13;;;;;;;;;;;22.40;99.90;;;;;;5052941;28;19995;-63
2022/07/11 13:51:39;;;;;;;;;;;22.90;99.90;;;;;;5067303;28;19908;-63
2022/07/11 13:54:05;;;;;;;;;;;23.20;99.90;;;;;;5067369;28;20226;-63
2022/07/11 13:56:30;;;;;;;;;;;23.50;99.90;;;;;;5067777;28;19908;-63
2022/07/11 13:58:56;;;;;;;;;;;23.70;99.90;;;;;;5052578;28;19943;-63
2022/07/11 14:01:21;;;;;;;;;;;24.00;99.90;;;;;;5049667;28;20011;-63
2022/07/11 14:03:47;;;;;;;;;;;24.00;99.90;;;;;;5070659;28;19912;-64
2022/07/11 14:06:12;;;;;;;;;;;24.20;99.90;;;;;;5070608;28;19931;-63
2022/07/11 14:08:38;;;;;;;;;;;24.30;99.90;;;;;;5069977;28;19908;-63
2022/07/11 14:11:04;;;;;;;;;;;24.60;99.90;;;;;;5069000;28;19912;-63
2022/07/11 14:13:30;;;;;;;;;;;24.40;99.90;;;;;;5051739;28;20015;-63
2022/07/11 14:15:55;;;;;;;;;;;24.70;99.90;;;;;;5052766;28;19920;-63
2022/07/11 14:18:21;;;;;;;;;;;25.30;99.90;;;;;;5052290;28;19912;-63
2022/07/11 14:20:46;;;;;;;;;;;25.30;99.90;;;;;;5070105;28;19935;-63
2022/07/11 14:23:12;;;;;;;;;;;24.30;99.90;;;;;;5070476;28;19912;-64
2022/07/11 14:25:40;;;;;;;;;;;24.50;99.90;;;;;;5069730;28;19909;-63
2022/07/11 14:28:06;;;;;;;;;;;24.00;99.90;;;;;;5070382;28;19970;-63